x

West Tampa - 112 Nm Wnw Of Tampa, Fl (42036) Wave Buoy

11:50am - Thu 25th May 2017 All times are EDT. -4 hours from GMT.

  • Sig Wave height 6.2ft
  • Swell Direction
  • Peak Period 8s
  • Average Period 5s
  • Wind
    13mph, 18mph gusts
  • Sea Temp 76°f
  • Air Temp 73°f
  • Sea Pressure 1011.8mb
  • West Tampa  - 112 Nm Wnw Of Tampa, Fl
  • West Tampa  - 112 Nm Wnw Of Tampa, Fl

More Historic Weather Station data

Upgrade to MSW Pro to gain access to the past 30 days of data for over 8000 Wavebouys and Weather Stations around the globe.

Join Pro

Comparision Forecast

View Surf forecast
   
Thu 05/25 11:50am 6ft 8s 5s 13 18 mph 1011.8mb 76f 73f
10:50am 6ft 7s 5s 13 18 mph 1011.6mb 76f 73f
9:50am 6.5ft 7s 6s 20 25 mph 1010.9mb 76f 74f
8:50am 6ft 7s 6s 20 25 mph 1010.3mb 76f 75f
7:50am 7ft 7s 6s 20 25 mph 1009.5mb 76f 75f
6:50am 7ft 7s 6s 20 25 mph 1008.5mb 76f 74f
5:50am 8ft 8s 6s 20 22 mph 1008.2mb 76f 74f
4:50am 8ft 7s 6s 20 25 mph 1007.7mb 76f 74f
3:50am 8ft 9s 6s 20 25 mph 1007.2mb 76f 74f
2:50am 7ft 7s 6s 22 29 mph 1006.7mb 76f 74f
1:50am 8ft 8s 6s 22 27 mph 1007.4mb 76f 74f
12:50am 8ft 8s 6s 22 27 mph 1007.4mb 77f 74f
Wed 05/24 11:50pm 8ft 8s 6s 25 27 mph 1007mb 77f 75f
10:50pm 8ft 8s 6s 25 29 mph 1006.2mb 77f 76f
9:50pm 9.5ft 8s 6s 25 29 mph 1005.2mb 77f 76f
8:50pm 8ft 8s 6s 20 25 mph 1004.1mb 77f 76f
7:50pm 9ft 8s 6s 27 31 mph 1003.2mb 77f 76f
6:50pm 9.5ft 8s 6s 29 38 mph 1003mb 77f 76f
5:50pm 9ft 8s 6s 20 27 mph 1003.7mb 77f 74f
4:50pm 9ft 8s 6s 29 34 mph 1003.2mb 77f 74f
3:50pm 7.5ft 7s 5s 31 38 mph 1003.7mb 77f 75f
2:50pm 8ft 7s 5s 29 34 mph 1003.8mb 77f 75f
1:50pm 8.5ft 7s 6s 25 29 mph 1003.9mb 77f 75f
12:50pm 9.5ft 8s 6s 27 31 mph 1003.9mb 78f 76f
11:50am 8ft 6s 5s 34 40 mph 1005.3mb 78f 75f
10:50am 6ft 6s 5s 29 38 mph 1005mb 78f 79f
9:50am 4.5ft 6s 5s 27 43 mph 1004.4mb 78f 78f
8:50am 5ft 6s 5s 25 29 mph 1004.1mb 78f 78f
7:50am 6ft 6s 5s 16 20 mph 1004.6mb 78f 78f
6:50am 5ft 6s 5s 9 11 mph 1005.4mb 78f 76f
5:50am 5ft 6s 5s 18 25 mph 1005.5mb 78f 78f
4:50am 6ft 6s 5s 18 22 mph 1006.6mb 78f 78f
3:50am 6ft 6s 5s 16 20 mph 1007.4mb 78f 78f
2:50am 5ft 6s 5s 18 22 mph 1007.2mb 78f 78f
1:50am 5.5ft 5s 5s 20 25 mph 1007.5mb 78f 77f
12:50am 4.5ft 5s 4s 22 27 mph 1007.4mb 78f 77f
Tue 05/23 11:50pm 4ft 5s 4s 25 31 mph 1007.7mb 78f 77f
10:50pm 3.5ft 5s 4s 16 20 mph 1009.4mb 78f 77f
9:50pm 3.5ft 4s 4s 18 20 mph 1009mb 78f 77f
8:50pm 4ft 5s 4s 20 25 mph 1008.3mb 78f 77f
7:50pm 3.5ft 5s  -  22 29 mph 1008.1mb 78f 76f
6:50pm 3.5ft 5s 4s 20 25 mph 1008.8mb 78f 79f
5:50pm 3.5ft 5s 4s 18 20 mph 1009.4mb 78f 79f
4:50pm 3.5ft 5s 4s 16 18 mph 1009.4mb 78f 79f
3:50pm 3.5ft 5s 4s 18 20 mph 1009.9mb 78f 79f
2:50pm 4ft 5s 4s 18 22 mph 1010.3mb 78f 79f
1:50pm 4ft 5s 4s 22 27 mph 1010.1mb 79f 79f
12:50pm 4ft 5s 4s 22 27 mph 1010.6mb 79f 78f
11:50am 3.5ft 5s 4s 20 25 mph 1011mb 79f 78f
10:50am 3.5ft 4s 4s 20 22 mph 1010.9mb 79f 78f
9:50am 3ft 4s 4s 20 22 mph 1011.4mb 79f 78f
8:50am 3ft 4s 4s 18 22 mph 1011.9mb 79f 78f
7:50am 2.5ft 8s 4s 18 20 mph 1011.9mb 79f 78f
6:50am 2.5ft 8s 4s 16 20 mph 1011.7mb 79f 78f
5:50am 2.5ft 8s 4s 13 16 mph 1011.7mb 79f 78f
4:50am 2.5ft 8s 4s 13 16 mph 1011.7mb 79f 78f
3:50am 2.5ft 8s 4s 13 16 mph 1012.3mb 79f 77f
2:50am 2.5ft 8s 4s 11 13 mph 1013.1mb 78f 77f
1:50am 2.5ft 8s 4s 13 16 mph 1013.5mb 78f 77f
12:50am 2.5ft 8s 4s 13 16 mph 1014.3mb 78f 78f
Mon 05/22 11:50pm 2ft 8s 4s 13 16 mph 1014.6mb 79f 78f
10:50pm 2.5ft 8s 5s 11 13 mph 1014.6mb 79f 78f
9:50pm 2ft 8s 4s 9 11 mph 1014.7mb 79f 78f
8:50pm 2.5ft 8s 4s 11 13 mph 1014.6mb 79f 78f
7:50pm 2.5ft 7s 4s 11 13 mph 1014.4mb 79f 78f
6:50pm 2.5ft 8s 4s 13 16 mph 1014.2mb 80f 78f
5:50pm 2.5ft 8s 4s 11 13 mph 1014.4mb 80f 79f
4:50pm 2ft 8s 5s 13 16 mph 1014.5mb 79f 78f
3:50pm 2.5ft 8s 5s 11 13 mph 1015.9mb 79f 78f
2:50pm 2ft 8s 6s 11 13 mph 1016.6mb 79f 78f
1:50pm 2ft 8s 5s 9 11 mph 1016.6mb 80f 78f
12:50pm 2ft 8s 5s 7 9 mph 1017.3mb 79f 78f
11:50am 2ft 8s 5s 7 7 mph 1018mb 79f 78f
10:50am 2.5ft 8s 6s 9 11 mph 1017.7mb 78f 78f
9:50am 2.5ft 8s 5s 9 9 mph 1017.9mb 78f 78f
8:50am 2ft 8s 5s 11 13 mph 1017.4mb 78f 77f
7:50am 2ft 8s 5s 11 13 mph 1017mb 78f 77f
6:50am 2.5ft 8s 5s 9 9 mph 1017.6mb 78f 77f
5:50am 2.5ft 8s 5s 7 7 mph 1017.3mb 78f 77f
4:50am 2.5ft 8s 5s 4 7 mph 1017.6mb 78f 77f
3:50am 2.5ft 8s 5s 7 7 mph 1017.5mb 78f 77f
2:50am 2.5ft 7s 5s 7 7 mph 1017.9mb 78f 77f
1:50am 2.5ft 8s 5s 2 4 mph 1017.9mb 78f 77f
12:50am 2.5ft 8s 5s 2 2 mph 1018.1mb 78f 77f
Sun 05/21 11:50pm 2.5ft 6s 5s 2 4 mph 1018.5mb 78f 77f
10:50pm 3ft 6s 5s 7 7 mph 1019mb 78f 78f
9:50pm 2.5ft 6s 5s 2 2 mph 1018.2mb 78f 78f
8:50pm 3ft 6s 5s 7 7 mph 1017.3mb 78f 78f
7:50pm 3ft 6s 5s 11 13 mph 1016.5mb 78f 78f
6:50pm 3.5ft 6s 5s 13 16 mph 1016.9mb 78f 78f
5:50pm 3.5ft 6s 5s 13 16 mph 1017.1mb 78f 78f